Time;durP1;ratioP1;P1;durP2;ratioP2;P2;SDS_P1;SDS_P2;PMS_P1;PMS_P2;Temp;Humidity;BMP_temperature;BMP_pressure;BME280_temperature;BME280_humidity;BME280_pressure;Samples;Min_cycle;Max_cycle;Signal;HPM_P1;HPM_P2
2023/07/08 04:05:17;;;;;;;2.70;2.30;;;18.10;87.30;;;;;;5678571;23;20480;-59
2023/07/08 04:07:42;;;;;;;5.20;2.53;;;18.10;86.50;;;;;;4955006;29;20512;-56
2023/07/08 04:10:09;;;;;;;4.73;3.63;;;18.20;85.60;;;;;;4938211;29;20516;-58
2023/07/08 04:12:35;;;;;;;3.67;2.30;;;18.20;85.80;;;;;;4950210;29;20180;-59
2023/07/08 04:15:01;;;;;;;2.50;2.30;;;18.30;86.00;;;;;;4941384;28;20459;-58
2023/07/08 04:17:27;;;;;;;3.40;2.70;;;18.30;86.10;;;;;;4919532;29;20564;-58
2023/07/08 04:19:53;;;;;;;2.60;2.40;;;18.40;86.60;;;;;;4955345;28;20863;-59
2023/07/08 04:22:18;;;;;;;4.87;2.27;;;18.40;86.90;;;;;;4955201;29;20209;-59
2023/07/08 04:24:44;;;;;;;3.60;2.77;;;18.60;87.10;;;;;;4954819;29;20187;-58
2023/07/08 04:27:15;;;;;;;2.50;2.07;;;18.70;86.70;;;;;;4954914;28;20615;-60
2023/07/08 04:29:41;;;;;;;3.57;2.47;;;18.90;85.00;;;;;;4954182;29;20172;-58
2023/07/08 04:32:07;;;;;;;2.60;2.40;;;19.10;85.70;;;;;;4935950;29;20417;-58
2023/07/08 04:34:33;;;;;;;6.53;3.20;;;19.30;84.70;;;;;;4934943;29;20492;-59
2023/07/08 04:36:59;;;;;;;4.93;2.93;;;19.60;84.40;;;;;;4937842;29;20412;-59
2023/07/08 04:39:24;;;;;;;2.90;2.60;;;19.80;83.70;;;;;;4940010;29;20429;-58
2023/07/08 04:41:50;;;;;;;2.77;2.27;;;20.10;83.60;;;;;;4939680;29;20264;-59
2023/07/08 04:44:18;;;;;;;5.07;3.17;;;20.40;82.40;;;;;;4939281;29;20173;-59
2023/07/08 04:46:55;;;;;;;2.70;2.43;;;20.70;81.50;;;;;;4939983;29;20201;-59
2023/07/08 04:49:23;;;;;;;4.60;3.20;;;20.90;80.70;;;;;;4939671;29;20472;-58
2023/07/08 04:51:48;;;;;;;2.70;1.90;;;21.10;80.30;;;;;;4939753;29;20463;-58
2023/07/08 04:54:14;;;;;;;4.37;2.73;;;21.30;79.80;;;;;;4939363;29;20460;-58
2023/07/08 04:56:42;;;;;;;3.03;2.83;;;21.40;79.20;;;;;;4939473;29;20667;-58
2023/07/08 04:59:10;;;;;;;2.87;2.57;;;21.50;77.10;;;;;;4939719;29;20178;-58
2023/07/08 05:01:37;;;;;;;2.70;2.40;;;21.50;76.90;;;;;;4939418;29;20464;-59
2023/07/08 05:04:04;;;;;;;5.00;2.60;;;21.60;77.40;;;;;;4939086;29;20410;-59
2023/07/08 05:06:30;;;;;;;4.03;2.00;;;21.70;76.70;;;;;;4942714;29;20445;-60
2023/07/08 05:08:56;;;;;;;3.97;2.77;;;21.80;76.30;;;;;;4958444;28;20511;-59
2023/07/08 05:11:21;;;;;;;3.17;2.07;;;21.80;76.00;;;;;;4958441;29;20258;-58
2023/07/08 05:13:47;;;;;;;2.73;2.30;;;21.70;75.90;;;;;;4958041;29;20232;-59
2023/07/08 05:16:13;;;;;;;2.33;2.13;;;21.70;76.20;;;;;;4941046;29;20264;-59
2023/07/08 05:18:38;;;;;;;3.33;2.50;;;21.60;75.40;;;;;;4958474;28;20182;-57
2023/07/08 05:21:05;;;;;;;3.90;2.93;;;21.60;76.60;;;;;;4958404;29;20188;-59
2023/07/08 05:23:30;;;;;;;3.70;3.30;;;21.60;76.40;;;;;;4957770;28;20666;-60
2023/07/08 05:26:00;;;;;;;3.73;2.57;;;21.70;76.60;;;;;;4958237;28;20434;-59
2023/07/08 05:28:25;;;;;;;2.60;2.37;;;21.80;76.80;;;;;;4958125;29;20190;-60
2023/07/08 05:30:55;;;;;;;2.60;2.40;;;22.00;76.90;;;;;;4957912;29;20408;-58
2023/07/08 05:33:25;;;;;;;3.53;2.87;;;22.20;76.30;;;;;;4957900;29;20177;-60
2023/07/08 05:35:51;;;;;;;2.50;2.40;;;22.30;75.80;;;;;;4957805;28;20435;-60
2023/07/08 05:38:17;;;;;;;2.97;2.80;;;22.50;75.60;;;;;;4940860;29;20411;-59
2023/07/08 05:40:43;;;;;;;1.97;1.87;;;22.80;75.40;;;;;;4957840;29;20191;-58
2023/07/08 05:43:09;;;;;;;3.63;2.67;;;23.50;75.00;;;;;;4957657;29;20468;-59
2023/07/08 05:45:37;;;;;;;2.40;2.20;;;24.20;71.90;;;;;;4957543;28;20196;-59
2023/07/08 05:48:03;;;;;;;3.33;2.33;;;24.60;69.50;;;;;;4956674;28;20212;-59
2023/07/08 05:50:28;;;;;;;2.90;2.43;;;24.80;67.60;;;;;;4958025;28;20437;-58
2023/07/08 05:52:54;;;;;;;3.80;3.20;;;24.90;68.30;;;;;;4957814;29;20181;-58
2023/07/08 05:55:19;;;;;;;2.03;1.87;;;25.00;68.40;;;;;;4957203;28;20666;-59
2023/07/08 05:57:45;;;;;;;3.20;2.20;;;25.10;67.60;;;;;;4957593;29;20256;-58
2023/07/08 06:00:11;;;;;;;3.13;2.70;;;25.20;68.20;;;;;;4957526;28;20185;-59
2023/07/08 06:02:37;;;;;;;2.80;2.27;;;25.20;68.50;;;;;;4957479;29;20742;-59
2023/07/08 06:05:02;;;;;;;2.27;2.07;;;25.20;68.70;;;;;;4957118;28;20486;-58
2023/07/08 06:07:28;;;;;;;3.73;2.60;;;25.30;67.90;;;;;;4957638;29;20275;-60
2023/07/08 06:09:55;;;;;;;3.17;2.97;;;25.50;66.80;;;;;;4957410;29;20227;-58
2023/07/08 06:12:21;;;;;;;2.43;2.23;;;25.60;66.00;;;;;;4957469;29;20559;-58
2023/07/08 06:14:47;;;;;;;2.60;2.40;;;25.70;63.60;;;;;;4957053;29;20399;-59
2023/07/08 06:17:12;;;;;;;3.13;2.53;;;25.80;63.70;;;;;;4957090;28;20436;-59
2023/07/08 06:19:38;;;;;;;3.50;2.40;;;25.90;62.50;;;;;;4957310;29;20180;-58
2023/07/08 06:22:04;;;;;;;2.97;2.10;;;26.00;62.90;;;;;;4957103;29;20225;-59
2023/07/08 06:24:30;;;;;;;3.60;2.60;;;26.10;61.50;;;;;;4956807;28;20177;-58
2023/07/08 06:26:55;;;;;;;2.90;2.40;;;26.10;61.70;;;;;;4956945;28;20403;-58
2023/07/08 06:29:21;;;;;;;3.80;2.40;;;26.10;61.60;;;;;;4956997;29;20177;-58
2023/07/08 06:31:46;;;;;;;2.73;2.40;;;26.20;61.90;;;;;;4957145;29;20192;-59
2023/07/08 06:34:12;;;;;;;2.40;2.20;;;26.40;61.50;;;;;;4956489;29;20271;-58
2023/07/08 06:36:38;;;;;;;3.63;2.57;;;26.70;60.40;;;;;;4956890;28;20208;-59
2023/07/08 06:39:06;;;;;;;2.50;2.07;;;26.90;60.00;;;;;;4956833;29;20221;-59
2023/07/08 06:41:32;;;;;;;5.20;2.80;;;27.10;59.80;;;;;;4956673;29;20602;-57
2023/07/08 06:43:58;;;;;;;3.60;2.70;;;27.30;59.00;;;;;;4956576;29;20448;-59
2023/07/08 06:46:24;;;;;;;3.60;3.30;;;27.40;58.80;;;;;;4956777;28;20207;-59
2023/07/08 06:48:49;;;;;;;4.10;3.60;;;27.40;59.00;;;;;;4956758;29;20392;-59
2023/07/08 06:51:15;;;;;;;3.90;2.77;;;27.40;59.30;;;;;;4956706;29;20181;-59
2023/07/08 06:53:41;;;;;;;2.50;2.30;;;27.40;58.80;;;;;;4956373;29;20591;-59
2023/07/08 06:56:08;;;;;;;3.67;3.37;;;27.40;58.90;;;;;;4956370;28;20438;-59
2023/07/08 06:58:33;;;;;;;2.20;2.00;;;27.40;59.30;;;;;;4956477;28;20188;-60
2023/07/08 07:00:59;;;;;;;4.10;2.90;;;27.40;59.60;;;;;;4956314;29;20482;-59
2023/07/08 07:03:25;;;;;;;2.43;1.97;;;27.50;59.60;;;;;;4956140;29;20592;-59
2023/07/08 07:05:52;;;;;;;2.30;2.10;;;27.80;59.00;;;;;;4956302;28;20253;-60
2023/07/08 07:08:17;;;;;;;3.40;2.47;;;28.10;58.60;;;;;;4938423;29;20432;-60
2023/07/08 07:10:43;;;;;;;3.07;2.20;;;28.30;58.50;;;;;;4937025;29;20178;-60
2023/07/08 07:13:09;;;;;;;3.50;3.07;;;28.50;58.70;;;;;;4937184;29;20543;-59
2023/07/08 07:15:35;;;;;;;4.70;3.07;;;28.60;59.10;;;;;;4936472;29;20193;-59
2023/07/08 07:18:01;;;;;;;3.90;2.97;;;28.30;59.60;;;;;;4937128;29;20483;-59
2023/07/08 07:20:27;;;;;;;2.33;2.10;;;28.20;59.60;;;;;;4920054;29;20185;-60
2023/07/08 07:22:53;;;;;;;3.90;2.50;;;28.00;60.50;;;;;;4936980;29;20205;-60
2023/07/08 07:25:19;;;;;;;2.73;2.40;;;27.80;61.20;;;;;;4936355;29;20487;-59
2023/07/08 07:27:44;;;;;;;2.83;2.03;;;27.70;62.20;;;;;;4937032;29;20479;-59
2023/07/08 07:30:15;;;;;;;3.83;3.43;;;27.70;62.80;;;;;;4936664;29;20871;-58
2023/07/08 07:32:41;;;;;;;2.87;2.43;;;27.80;62.60;;;;;;4919681;29;20184;-59
2023/07/08 07:35:12;;;;;;;3.40;2.37;;;27.80;62.20;;;;;;4936426;29;20410;-58
2023/07/08 07:37:38;;;;;;;3.37;2.13;;;27.90;62.40;;;;;;4936863;29;20417;-59
2023/07/08 07:40:05;;;;;;;2.43;2.23;;;27.80;62.90;;;;;;4936761;29;20912;-58
2023/07/08 07:42:31;;;;;;;2.30;2.10;;;27.80;62.60;;;;;;4936535;29;20489;-58
2023/07/08 07:44:56;;;;;;;2.47;2.27;;;27.80;62.70;;;;;;4936198;29;20898;-60
2023/07/08 07:47:22;;;;;;;2.87;2.57;;;27.80;62.60;;;;;;4936487;29;20217;-61
2023/07/08 07:49:47;;;;;;;2.77;2.57;;;27.80;63.20;;;;;;4936736;29;20640;-58
2023/07/08 07:52:13;;;;;;;2.77;2.47;;;27.90;63.70;;;;;;4919331;29;20272;-59
2023/07/08 07:54:39;;;;;;;2.37;2.17;;;28.10;64.30;;;;;;4936163;29;20185;-59
2023/07/08 07:57:05;;;;;;;2.80;2.27;;;28.20;64.50;;;;;;4936426;29;20326;-59
2023/07/08 07:59:31;;;;;;;3.70;3.30;;;28.30;64.20;;;;;;4936543;29;20428;-59
2023/07/08 08:01:57;;;;;;;2.83;2.57;;;28.40;63.70;;;;;;4936204;29;20433;-59
2023/07/08 08:04:23;;;;;;;3.80;2.47;;;28.70;62.70;;;;;;4937073;29;20392;-60
2023/07/08 08:06:48;;;;;;;2.10;1.80;;;29.20;61.80;;;;;;4942870;29;20203;-59
2023/07/08 08:09:14;;;;;;;2.13;1.93;;;29.70;61.10;;;;;;4956448;29;20187;-59
2023/07/08 08:11:39;;;;;;;2.97;2.50;;;30.10;60.50;;;;;;4939085;29;20181;-59
2023/07/08 08:14:05;;;;;;;2.70;2.50;;;30.60;59.90;;;;;;4956613;29;20192;-59
2023/07/08 08:16:31;;;;;;;3.00;2.17;;;31.00;59.20;;;;;;4956026;28;20220;-60
2023/07/08 08:18:56;;;;;;;2.83;2.63;;;31.50;58.40;;;;;;4955909;29;20282;-60
2023/07/08 08:21:22;;;;;;;2.40;2.20;;;32.10;58.20;;;;;;4955507;28;20674;-60
2023/07/08 08:23:47;;;;;;;4.07;3.33;;;33.10;56.40;;;;;;4954776;29;20248;-57
2023/07/08 08:26:13;;;;;;;2.43;2.23;;;34.00;54.80;;;;;;4955052;28;20215;-60
2023/07/08 08:28:39;;;;;;;2.23;2.03;;;34.70;53.80;;;;;;4955178;29;20576;-59
2023/07/08 08:31:05;;;;;;;2.63;2.40;;;35.50;52.20;;;;;;4955112;29;20923;-57
2023/07/08 08:33:31;;;;;;;2.50;2.30;;;36.10;51.50;;;;;;4954639;29;20459;-60
2023/07/08 08:35:56;;;;;;;2.37;2.17;;;36.60;50.30;;;;;;4955082;28;20197;-60
2023/07/08 08:38:22;;;;;;;2.87;2.67;;;37.40;49.20;;;;;;4955214;28;20177;-61
2023/07/08 08:40:48;;;;;;;2.90;2.60;;;38.30;48.60;;;;;;4955006;29;20224;-60
2023/07/08 08:43:21;;;;;;;3.50;3.20;;;39.30;47.70;;;;;;4954919;29;20212;-60
2023/07/08 08:46:24;;;;;;;3.10;2.90;;;40.10;46.80;;;;;;4954785;28;20197;-61
2023/07/08 08:49:12;;;;;;;2.80;2.60;;;40.40;45.40;;;;;;4954931;29;20396;-60
2023/07/08 08:51:37;;;;;;;2.70;2.60;;;41.10;44.70;;;;;;4955438;29;20409;-60
2023/07/08 08:54:03;;;;;;;2.70;2.50;;;41.80;43.70;;;;;;4954479;29;20411;-60
2023/07/08 08:56:37;;;;;;;2.83;2.63;;;41.80;42.90;;;;;;4954701;28;20259;-61
2023/07/08 08:59:24;;;;;;;2.93;2.73;;;41.70;42.50;;;;;;4954815;29;20559;-61
2023/07/08 09:01:50;;;;;;;3.00;2.80;;;42.00;42.20;;;;;;4955271;29;20409;-60
2023/07/08 09:04:22;;;;;;;3.50;3.13;;;42.40;42.00;;;;;;4954622;29;20412;-60
2023/07/08 09:06:48;;;;;;;3.00;2.80;;;42.60;41.30;;;;;;4954698;28;20572;-61
2023/07/08 09:09:40;;;;;;;2.73;2.53;;;42.20;41.50;;;;;;4954944;29;20423;-61
2023/07/08 09:12:13;;;;;;;3.50;2.97;;;41.50;42.10;;;;;;4951628;28;20495;-60
2023/07/08 09:14:39;;;;;;;2.87;2.50;;;41.00;42.50;;;;;;4954637;29;20582;-60
2023/07/08 09:17:32;;;;;;;2.67;2.53;;;40.80;42.10;;;;;;4954718;28;20428;-61
2023/07/08 09:20:16;;;;;;;2.80;2.60;;;40.60;42.80;;;;;;4954613;29;20416;-60
2023/07/08 09:22:54;;;;;;;2.20;2.00;;;41.00;42.50;;;;;;4956837;28;20516;-62
2023/07/08 09:25:55;;;;;;;2.60;2.40;;;41.00;42.60;;;;;;4957742;28;20435;-59
2023/07/08 09:28:20;;;;;;;2.67;2.47;;;41.40;42.50;;;;;;4954973;28;20438;-58
2023/07/08 09:30:53;;;;;;;2.60;2.50;;;42.10;42.00;;;;;;4958062;28;20408;-60
2023/07/08 09:33:18;;;;;;;3.13;2.93;;;42.60;41.40;;;;;;4957998;29;20200;-59
2023/07/08 09:35:47;;;;;;;2.67;2.47;;;43.10;41.10;;;;;;4940225;29;20443;-61
2023/07/08 09:38:20;;;;;;;2.83;2.70;;;43.30;40.60;;;;;;4957856;29;20180;-59
2023/07/08 09:40:55;;;;;;;6.05;5.45;;;43.70;40.10;;;;;;4958096;29;20392;-61
2023/07/08 09:43:37;;;;;;;2.97;2.88;;;43.80;39.60;;;;;;4957796;29;20267;-59
2023/07/08 09:46:03;;;;;;;2.78;2.63;;;44.00;39.80;;;;;;4957743;28;20316;-59
2023/07/08 09:48:32;;;;;;;2.90;2.70;;;44.00;39.40;;;;;;4957709;29;20604;-60
2023/07/08 09:50:58;;;;;;;2.70;2.50;;;44.10;39.50;;;;;;4957583;29;20187;-60
2023/07/08 09:53:24;;;;;;;3.50;3.30;;;44.50;38.60;;;;;;4957232;29;20173;-60
2023/07/08 09:55:51;;;;;;;2.78;2.67;;;44.50;38.10;;;;;;4957517;28;20207;-61
2023/07/08 09:58:31;;;;;;;2.75;2.65;;;44.60;37.40;;;;;;4957951;28;20177;-61
2023/07/08 10:01:29;;;;;;;2.20;2.10;;;44.70;37.30;;;;;;4956720;29;20218;-60
2023/07/08 10:04:00;;;;;;;2.80;2.20;;;43.80;37.70;;;;;;4928102;29;20428;-59
2023/07/08 10:06:30;;;;;;;4.40;4.10;;;43.10;38.00;;;;;;4943795;28;20438;-59
2023/07/08 10:09:00;;;;;;;2.17;2.07;;;42.60;37.80;;;;;;4976623;28;20427;-59
2023/07/08 10:11:38;;;;;;;1.80;1.70;;;42.10;38.60;;;;;;4976737;28;20813;-60
2023/07/08 10:14:11;;;;;;;1.93;1.83;;;41.70;39.50;;;;;;4976263;28;20396;-59
2023/07/08 10:16:37;;;;;;;2.77;1.97;;;41.40;39.80;;;;;;4976724;28;20431;-61
2023/07/08 10:19:14;;;;;;;1.60;1.50;;;41.60;40.10;;;;;;4976586;28;20918;-59
2023/07/08 10:21:42;;;;;;;2.33;2.10;;;41.60;39.10;;;;;;4976764;28;20176;-58
2023/07/08 10:24:36;;;;;;;2.20;2.10;;;41.30;40.30;;;;;;4976079;28;20467;-60
2023/07/08 10:27:26;;;;;;;2.20;2.00;;;41.10;41.20;;;;;;4976395;28;20439;-61
2023/07/08 10:30:01;;;;;;;2.43;2.17;;;41.00;41.20;;;;;;4976388;28;20866;-60
2023/07/08 10:32:54;;;;;;;2.40;2.20;;;40.70;41.50;;;;;;4976385;28;20818;-59
2023/07/08 10:35:31;;;;;;;2.50;2.30;;;40.20;41.90;;;;;;4975262;28;20423;-62
2023/07/08 10:38:33;;;;;;;2.70;2.50;;;39.50;42.00;;;;;;4976357;28;20495;-61
2023/07/08 10:41:06;;;;;;;2.30;2.10;;;38.70;42.80;;;;;;4976051;28;20810;-59
2023/07/08 10:43:48;;;;;;;1.70;1.60;;;37.90;43.50;;;;;;4975738;28;20403;-60
2023/07/08 10:46:38;;;;;;;1.97;1.87;;;37.00;44.30;;;;;;4976111;28;20428;-59
2023/07/08 10:49:39;;;;;;;2.57;2.10;;;36.10;45.60;;;;;;4976081;28;20400;-59
2023/07/08 10:52:28;;;;;;;2.13;1.90;;;35.10;47.10;;;;;;4975765;28;20947;-60
2023/07/08 10:55:17;;;;;;;2.23;2.03;;;34.70;48.10;;;;;;4946694;28;20415;-59
2023/07/08 10:57:56;;;;;;;1.60;1.50;;;34.50;48.70;;;;;;4975711;28;20414;-58
2023/07/08 11:00:38;;;;;;;2.27;1.67;;;35.00;48.10;;;;;;4975879;28;20407;-60
2023/07/08 11:03:36;;;;;;;1.73;1.60;;;35.50;47.40;;;;;;4975845;28;20389;-57
2023/07/08 11:06:30;;;;;;;1.77;1.53;;;36.10;46.60;;;;;;4975683;28;20419;-58
2023/07/08 11:08:59;;;;;;;1.63;1.53;;;36.40;45.20;;;;;;4937069;29;20803;-59
2023/07/08 11:11:56;;;;;;;2.00;1.77;;;36.50;45.40;;;;;;4937074;29;20500;-58
2023/07/08 11:14:35;;;;;;;2.20;2.03;;;36.50;45.10;;;;;;4936565;29;20409;-59
2023/07/08 11:17:09;;;;;;;1.87;1.60;;;36.50;45.20;;;;;;4919922;29;20433;-58
2023/07/08 11:19:40;;;;;;;2.20;2.00;;;36.30;44.40;;;;;;4919816;29;20965;-60
2023/07/08 11:22:11;;;;;;;2.00;1.80;;;35.60;45.10;;;;;;4937036;29;20409;-60
2023/07/08 11:24:46;;;;;;;1.40;1.30;;;34.90;46.10;;;;;;4936425;29;20413;-58
2023/07/08 11:27:19;;;;;;;1.70;1.60;;;34.30;46.60;;;;;;4936676;29;20516;-59
2023/07/08 11:29:52;;;;;;;1.53;1.43;;;33.70;47.40;;;;;;4936881;29;20856;-60
2023/07/08 11:32:21;;;;;;;1.60;1.50;;;33.10;48.50;;;;;;4936987;29;20431;-60
2023/07/08 11:34:49;;;;;;;2.30;1.73;;;32.80;48.70;;;;;;4936318;29;20867;-59
2023/07/08 11:37:16;;;;;;;1.30;1.20;;;32.50;49.00;;;;;;4936931;29;20408;-60
2023/07/08 11:39:44;;;;;;;2.70;1.80;;;32.30;50.20;;;;;;4937027;29;20897;-60
2023/07/08 11:42:19;;;;;;;1.50;1.40;;;32.20;50.10;;;;;;4936596;29;20413;-59
2023/07/08 11:44:51;;;;;;;3.57;1.60;;;32.20;49.70;;;;;;4936078;29;20782;-59
2023/07/08 11:47:24;;;;;;;2.00;1.80;;;32.00;49.60;;;;;;4936115;29;20492;-60
2023/07/08 11:49:53;;;;;;;1.20;1.20;;;31.90;50.70;;;;;;4936400;29;20752;-60
2023/07/08 11:52:21;;;;;;;1.73;1.63;;;31.90;50.60;;;;;;4936477;29;20469;-60
2023/07/08 11:54:54;;;;;;;1.60;1.50;;;31.90;50.50;;;;;;4936217;29;20410;-59
2023/07/08 11:57:38;;;;;;;1.73;1.63;;;31.90;50.60;;;;;;4936652;29;20472;-60
2023/07/08 12:00:22;;;;;;;1.20;1.10;;;31.80;50.10;;;;;;4936532;29;20384;-60
2023/07/08 12:02:55;;;;;;;1.90;1.60;;;31.90;49.70;;;;;;4936484;29;20941;-60
2023/07/08 12:05:35;;;;;;;1.80;1.70;;;31.90;51.10;;;;;;4935912;29;20483;-58
2023/07/08 12:08:03;;;;;;;1.43;1.33;;;31.90;50.10;;;;;;4951436;29;20842;-59
2023/07/08 12:10:39;;;;;;;1.37;1.13;;;31.90;49.10;;;;;;4955246;29;20387;-59
2023/07/08 12:13:20;;;;;;;2.17;1.50;;;31.70;49.20;;;;;;4955088;29;20982;-59
2023/07/08 12:15:45;;;;;;;1.60;1.50;;;31.60;49.80;;;;;;4937947;29;20439;-58
2023/07/08 12:18:19;;;;;;;1.83;1.60;;;31.60;49.50;;;;;;4955106;29;20440;-59
2023/07/08 12:20:58;;;;;;;1.27;1.10;;;31.50;50.50;;;;;;4955411;29;20607;-60
2023/07/08 12:23:26;;;;;;;2.23;1.70;;;31.40;50.60;;;;;;4937728;29;20765;-59
2023/07/08 12:25:52;;;;;;;1.60;1.50;;;31.40;50.10;;;;;;4955334;28;20823;-59
2023/07/08 12:28:19;;;;;;;1.60;1.40;;;31.50;50.10;;;;;;4955073;28;20923;-60
2023/07/08 12:30:46;;;;;;;1.80;1.50;;;31.40;50.00;;;;;;4955132;29;20405;-60
2023/07/08 12:33:28;;;;;;;2.00;1.80;;;31.50;50.90;;;;;;4955050;29;20468;-59
2023/07/08 12:35:55;;;;;;;1.90;1.33;;;31.70;50.70;;;;;;4954937;28;20403;-59
2023/07/08 12:38:37;;;;;;;1.13;1.03;;;31.90;49.80;;;;;;4937826;29;20412;-59
2023/07/08 12:41:09;;;;;;;1.40;1.30;;;32.00;48.70;;;;;;4955170;29;20818;-59
2023/07/08 12:43:35;;;;;;;1.03;1.00;;;32.00;48.70;;;;;;4954678;29;20407;-59
2023/07/08 12:46:03;;;;;;;1.67;1.47;;;31.80;48.70;;;;;;4954862;28;20407;-59
2023/07/08 12:48:33;;;;;;;1.60;1.07;;;31.70;48.90;;;;;;4954957;28;20251;-60
2023/07/08 12:50:59;;;;;;;1.37;1.27;;;31.70;48.90;;;;;;4954902;29;20474;-58
2023/07/08 12:53:24;;;;;;;2.13;1.33;;;31.60;49.40;;;;;;4954568;29;20623;-58
2023/07/08 12:55:54;;;;;;;1.30;1.20;;;31.60;50.30;;;;;;4955032;28;20189;-59
2023/07/08 12:58:32;;;;;;;1.43;1.30;;;31.70;50.00;;;;;;4957888;28;20184;-59
2023/07/08 13:01:01;;;;;;;1.57;1.47;;;31.80;50.60;;;;;;4958832;29;20363;-60
2023/07/08 13:03:37;;;;;;;1.50;1.40;;;31.90;50.50;;;;;;4940986;28;20387;-59
2023/07/08 13:06:03;;;;;;;2.37;2.00;;;32.00;49.50;;;;;;4958469;28;20431;-60
2023/07/08 13:08:34;;;;;;;2.47;1.10;;;32.00;49.60;;;;;;4958566;29;20436;-59
2023/07/08 13:11:01;;;;;;;1.40;1.30;;;31.90;49.40;;;;;;4958508;29;20379;-59
2023/07/08 13:13:33;;;;;;;2.63;0.90;;;32.00;49.60;;;;;;4958338;29;20467;-58
2023/07/08 13:15:59;;;;;;;0.87;0.87;;;32.00;50.10;;;;;;4958453;28;20403;-58
2023/07/08 13:18:35;;;;;;;2.70;1.33;;;32.00;49.60;;;;;;4958192;29;20901;-58
2023/07/08 13:21:03;;;;;;;1.70;1.60;;;32.00;49.30;;;;;;4958401;29;20469;-60
2023/07/08 13:23:29;;;;;;;1.20;1.07;;;32.00;49.50;;;;;;4957963;28;20406;-59
2023/07/08 13:25:55;;;;;;;1.33;1.23;;;32.10;48.80;;;;;;4958077;28;20436;-58
2023/07/08 13:28:25;;;;;;;2.50;1.40;;;32.10;49.00;;;;;;4958582;29;20499;-59
2023/07/08 13:30:56;;;;;;;1.60;1.50;;;32.10;49.00;;;;;;4958185;29;20420;-59
2023/07/08 13:33:23;;;;;;;1.30;1.20;;;32.00;49.00;;;;;;4957814;29;20434;-58
2023/07/08 13:35:51;;;;;;;1.57;1.30;;;32.00;49.20;;;;;;4957815;28;20407;-60
2023/07/08 13:38:31;;;;;;;1.60;1.50;;;32.00;49.10;;;;;;4957810;29;20412;-60
2023/07/08 13:41:01;;;;;;;1.77;1.43;;;32.00;48.90;;;;;;4957917;29;20412;-60
2023/07/08 13:43:31;;;;;;;1.20;1.10;;;32.00;49.20;;;;;;4957568;29;20419;-58
2023/07/08 13:45:58;;;;;;;1.70;1.60;;;32.00;48.80;;;;;;4941424;29;20436;-58
2023/07/08 13:48:35;;;;;;;0.90;0.90;;;32.00;48.10;;;;;;4957611;29;20408;-58
2023/07/08 13:51:08;;;;;;;1.40;1.27;;;32.00;48.30;;;;;;4957839;29;20391;-60
2023/07/08 13:53:46;;;;;;;1.53;1.43;;;32.00;48.40;;;;;;4957200;28;20895;-61
2023/07/08 13:56:15;;;;;;;1.30;1.20;;;31.90;48.90;;;;;;4957853;28;20444;-60
2023/07/08 13:58:50;;;;;;;1.20;1.10;;;32.00;48.70;;;;;;4957658;29;20386;-59
2023/07/08 14:01:20;;;;;;;2.07;1.60;;;31.90;49.00;;;;;;4957329;29;20434;-59
2023/07/08 14:03:46;;;;;;;1.13;1.13;;;32.00;48.70;;;;;;4957152;29;20393;-60
2023/07/08 14:06:19;;;;;;;1.40;1.30;;;32.00;48.50;;;;;;4957324;28;20790;-58
2023/07/08 14:08:45;;;;;;;1.50;1.40;;;31.90;49.00;;;;;;4956425;28;20436;-60
2023/07/08 14:11:10;;;;;;;1.73;1.07;;;31.90;49.40;;;;;;4957659;29;20383;-59
2023/07/08 14:13:36;;;;;;;2.17;1.70;;;32.00;49.20;;;;;;4957062;29;20196;-59
2023/07/08 14:16:05;;;;;;;1.87;1.30;;;32.00;49.10;;;;;;4957286;28;20189;-59
2023/07/08 14:18:31;;;;;;;1.60;1.50;;;32.00;48.90;;;;;;4957205;28;20635;-59
2023/07/08 14:20:58;;;;;;;1.30;1.20;;;31.90;49.40;;;;;;4957467;29;20883;-60
2023/07/08 14:23:24;;;;;;;1.50;1.40;;;32.00;49.40;;;;;;4956667;29;20424;-60
2023/07/08 14:25:49;;;;;;;1.73;1.50;;;32.00;49.80;;;;;;4957089;28;20410;-59
2023/07/08 14:28:15;;;;;;;1.50;1.40;;;32.00;49.30;;;;;;4956996;29;20173;-60
2023/07/08 14:30:47;;;;;;;1.40;1.30;;;32.10;48.90;;;;;;4956852;28;20280;-60
2023/07/08 14:33:13;;;;;;;1.90;1.80;;;32.10;48.90;;;;;;4956758;29;20217;-59
2023/07/08 14:35:40;;;;;;;1.97;1.43;;;32.00;49.20;;;;;;4956613;28;20475;-60
2023/07/08 14:38:11;;;;;;;1.27;1.27;;;32.10;49.30;;;;;;4956955;29;20387;-60
2023/07/08 14:40:38;;;;;;;1.40;1.30;;;32.10;49.30;;;;;;4956729;29;20417;-60
2023/07/08 14:43:26;;;;;;;1.40;1.30;;;32.10;49.50;;;;;;4957004;29;20771;-59
2023/07/08 14:45:55;;;;;;;1.83;1.47;;;32.20;49.40;;;;;;4956597;28;20408;-60
2023/07/08 14:48:21;;;;;;;1.70;1.60;;;32.20;49.20;;;;;;4956463;29;20398;-59
2023/07/08 14:50:47;;;;;;;1.80;1.70;;;32.20;49.20;;;;;;4956399;29;20383;-59
2023/07/08 14:53:18;;;;;;;1.80;1.30;;;32.20;49.10;;;;;;4956432;29;20501;-60
2023/07/08 14:55:46;;;;;;;3.00;1.40;;;32.20;49.40;;;;;;4956137;28;20443;-61
2023/07/08 14:58:18;;;;;;;2.03;1.80;;;32.30;49.50;;;;;;4956619;29;20535;-58
2023/07/08 15:00:43;;;;;;;1.70;1.50;;;32.30;49.40;;;;;;4956246;29;20739;-58
2023/07/08 15:03:10;;;;;;;1.73;1.63;;;32.30;49.90;;;;;;4956242;29;20394;-58
2023/07/08 15:05:35;;;;;;;1.60;1.50;;;32.30;50.10;;;;;;4956109;28;20201;-59
2023/07/08 15:08:01;;;;;;;3.23;1.43;;;32.40;49.70;;;;;;4956184;29;20422;-58
2023/07/08 15:10:29;;;;;;;2.00;1.80;;;32.60;49.40;;;;;;4956017;29;20184;-58
2023/07/08 15:12:57;;;;;;;1.60;1.50;;;32.70;49.20;;;;;;4955977;29;20211;-58
2023/07/08 15:15:35;;;;;;;2.00;1.17;;;32.80;49.00;;;;;;4955720;28;20858;-58
2023/07/08 15:18:04;;;;;;;1.90;1.63;;;32.80;48.60;;;;;;4956218;28;20414;-58
2023/07/08 15:20:32;;;;;;;1.63;1.53;;;32.90;48.50;;;;;;4955821;28;20383;-59
2023/07/08 15:22:57;;;;;;;1.40;1.30;;;32.90;48.20;;;;;;4955868;29;20412;-59
2023/07/08 15:25:24;;;;;;;1.40;1.27;;;32.90;48.40;;;;;;4955877;28;20411;-57
2023/07/08 15:27:54;;;;;;;1.67;1.57;;;32.90;49.10;;;;;;4955740;28;20173;-61
2023/07/08 15:30:25;;;;;;;1.80;1.70;;;33.00;48.30;;;;;;4956070;29;20379;-61
2023/07/08 15:32:52;;;;;;;1.80;1.30;;;33.00;48.70;;;;;;4955941;29;20450;-60
2023/07/08 15:35:29;;;;;;;1.40;1.30;;;33.10;49.30;;;;;;4955267;28;20403;-59
2023/07/08 15:37:56;;;;;;;2.00;1.37;;;33.10;48.30;;;;;;4956018;29;20426;-60
2023/07/08 15:40:22;;;;;;;1.53;1.30;;;33.10;47.50;;;;;;4955560;28;20387;-59
2023/07/08 15:42:50;;;;;;;2.20;1.53;;;33.00;47.90;;;;;;4955858;29;20379;-59
2023/07/08 15:45:24;;;;;;;1.53;1.30;;;32.80;47.90;;;;;;4955226;28;20441;-57
2023/07/08 15:47:50;;;;;;;2.20;1.13;;;32.60;48.00;;;;;;4955721;29;20416;-59
2023/07/08 15:50:19;;;;;;;1.40;1.30;;;32.40;48.60;;;;;;4955405;29;20379;-60
2023/07/08 15:52:45;;;;;;;1.70;1.60;;;32.30;48.90;;;;;;4955335;29;20236;-59
2023/07/08 15:55:12;;;;;;;1.23;1.13;;;32.10;49.20;;;;;;4955328;28;20410;-59
2023/07/08 15:57:48;;;;;;;1.77;1.23;;;32.10;49.60;;;;;;4955419;29;20184;-60
2023/07/08 16:00:20;;;;;;;2.27;1.60;;;32.00;49.70;;;;;;4955863;29;20740;-60
2023/07/08 16:02:49;;;;;;;1.43;1.20;;;32.00;49.90;;;;;;4955376;29;20395;-58
2023/07/08 16:05:15;;;;;;;1.43;1.30;;;32.10;49.70;;;;;;4955206;28;20515;-59
2023/07/08 16:07:41;;;;;;;4.30;1.30;;;32.10;49.60;;;;;;4955484;29;20787;-59
2023/07/08 16:10:08;;;;;;;1.70;1.60;;;32.10;49.60;;;;;;4955386;29;20383;-59
2023/07/08 16:12:33;;;;;;;2.60;1.60;;;32.00;49.60;;;;;;4955811;29;20563;-59
2023/07/08 16:14:59;;;;;;;2.00;1.40;;;32.00;49.80;;;;;;4955084;28;20383;-59
2023/07/08 16:17:25;;;;;;;1.93;1.80;;;32.00;49.60;;;;;;4955317;29;20169;-60
2023/07/08 16:19:50;;;;;;;1.60;1.50;;;31.90;50.10;;;;;;4955433;29;20180;-59
2023/07/08 16:22:16;;;;;;;1.27;1.17;;;31.90;50.10;;;;;;4955228;29;20204;-59
2023/07/08 16:24:42;;;;;;;2.30;1.53;;;31.90;50.20;;;;;;4954697;29;20256;-59
2023/07/08 16:27:10;;;;;;;3.03;1.73;;;31.90;50.10;;;;;;4954673;28;20682;-59
2023/07/08 16:29:35;;;;;;;1.60;1.50;;;31.90;50.10;;;;;;4955318;28;20467;-59
2023/07/08 16:32:01;;;;;;;3.40;1.97;;;31.80;49.80;;;;;;4956074;28;20766;-59
2023/07/08 16:34:26;;;;;;;1.40;1.30;;;31.80;49.80;;;;;;4958861;29;20589;-58
2023/07/08 16:36:52;;;;;;;1.83;1.73;;;31.70;50.30;;;;;;4959292;28;20746;-59
2023/07/08 16:39:18;;;;;;;1.60;1.50;;;31.70;50.10;;;;;;4959180;29;20525;-58
2023/07/08 16:41:43;;;;;;;1.40;1.30;;;31.60;50.20;;;;;;4959135;29;20208;-59
2023/07/08 16:44:16;;;;;;;2.07;1.97;;;31.60;50.30;;;;;;4941144;29;20176;-59
2023/07/08 16:46:42;;;;;;;2.80;1.97;;;31.50;50.70;;;;;;4958338;28;20192;-60
2023/07/08 16:49:09;;;;;;;1.90;1.30;;;31.50;50.80;;;;;;4958719;29;20528;-59
2023/07/08 16:51:35;;;;;;;1.50;1.40;;;31.50;50.80;;;;;;4958581;29;20513;-59
2023/07/08 16:54:11;;;;;;;1.43;1.33;;;31.40;50.90;;;;;;4958017;28;20384;-59
2023/07/08 16:56:37;;;;;;;1.40;1.20;;;31.40;51.00;;;;;;4958344;28;20420;-59
2023/07/08 16:59:02;;;;;;;1.83;1.47;;;31.40;50.90;;;;;;4958360;28;20382;-58
2023/07/08 17:01:29;;;;;;;1.37;1.27;;;31.40;51.10;;;;;;4958361;29;20177;-58
2023/07/08 17:03:56;;;;;;;1.00;1.00;;;31.40;51.30;;;;;;4958071;29;20176;-58
2023/07/08 17:06:22;;;;;;;1.20;1.20;;;31.30;50.90;;;;;;4958285;28;20399;-59